< < Back
Terminal Aerodrome Forecast


Current Version              Previous Versions:   1  2  3  4  5  6  7  8  9  

Terminal Aerodrome Forecast

018
FTUS42 KJAX 050520
TAFSSI
TAF
KSSI 050520Z 0506/0606 24006KT P6SM FEW150 SCT250
     FM051200 25007KT P6SM FEW025 SCT080 BKN250
     FM051800 17008KT P6SM VCTS SCT035CB BKN250
     FM060100 22008KT P6SM SCT100 BKN200=

Latest METAR

771
SAUS70 KWBC 051000 RRH
MTRSSI
METAR KSSI 050953Z AUTO 24007KT 10SM CLR 25/24 A3005 RMK AO2 SLP178
T02500239


USA.gov is the U.S. government's official web portal to all federal, state and local government web resources and services.